Crumpton, Maryland
Current Conditions -  °F | °C
As of 5:58 PM on Wednesday 17 Dec 2014 (Local Time) from KDOV Reporting Station
Clear Clear  
Wind Chill: 40°   Ceiling: Unl
Heat Index: 46°   Visibility: 10mi
Dew Point: 29°   Wind: 13mph
Humidity: 51%   Direction: 300°WNW
Pressure: 29.95"   Gusts: NA
Location:  39.24°N, 75.92°W
Report Text: KDOV 172258Z AUTO 30011KT 10SM CLR 08/M02 A2995 RMK AO2 SLP145 T00761019
Loading
Personal Weather Stations






























Interactive Weather Map New forecast layout! Learn more

10-Day Weather Forecast

Advertisements
Track Severe Weather on mobile